createdAt,value
2019-03-27T00:04:13.160Z,8.28
2019-03-27T00:09:44.155Z,9.53
2019-03-27T00:15:12.982Z,10.10
2019-03-27T00:20:45.541Z,8.38
2019-03-27T00:26:08.027Z,9.28
2019-03-27T00:31:31.137Z,11.30
2019-03-27T00:36:54.203Z,10.03
2019-03-27T00:42:19.809Z,10.30
2019-03-27T00:47:43.156Z,10.63
2019-03-27T00:53:07.942Z,9.18
2019-03-27T00:58:34.822Z,8.20
2019-03-27T01:03:58.537Z,10.35
2019-03-27T01:09:22.483Z,7.53
2019-03-27T01:14:44.464Z,10.35
2019-03-27T01:20:07.777Z,8.30
2019-03-27T01:25:31.705Z,10.38
2019-03-27T01:30:55.155Z,8.15
2019-03-27T01:36:17.585Z,7.00
2019-03-27T01:41:41.431Z,8.33
2019-03-27T01:47:04.591Z,7.28
2019-03-27T01:52:27.215Z,8.90
2019-03-27T01:57:51.237Z,7.05
2019-03-27T02:03:15.125Z,10.53
2019-03-27T02:08:37.206Z,10.63
2019-03-27T02:13:59.344Z,7.85
2019-03-27T02:19:23.016Z,8.10
2019-03-27T02:24:45.732Z,7.90
2019-03-27T02:30:08.646Z,10.28
2019-03-27T02:35:30.945Z,10.53
2019-03-27T02:40:56.052Z,13.30
2019-03-27T02:46:24.909Z,12.70
2019-03-27T02:51:47.250Z,13.13
2019-03-27T02:57:11.173Z,14.10
2019-03-27T03:02:35.076Z,15.80
2019-03-27T03:07:57.711Z,13.58
2019-03-27T03:13:23.617Z,13.00
2019-03-27T03:18:46.586Z,14.80
2019-03-27T03:24:10.634Z,15.23
2019-03-27T03:29:35.971Z,15.35
2019-03-27T03:34:59.397Z,14.43
2019-03-27T03:40:21.875Z,15.93
2019-03-27T03:45:44.541Z,14.75
2019-03-27T03:51:07.936Z,16.55
2019-03-27T03:56:32.522Z,15.20
2019-03-27T04:01:55.314Z,15.68
2019-03-27T04:07:18.621Z,16.30
2019-03-27T04:12:42.432Z,17.17
2019-03-27T04:18:16.299Z,16.35
2019-03-27T04:23:39.792Z,16.52
2019-03-27T04:29:12.985Z,16.32
2019-03-27T04:34:35.526Z,17.62
2019-03-27T04:39:58.436Z,15.78
2019-03-27T04:45:21.198Z,16.32
2019-03-27T04:50:44.161Z,21.10
2019-03-27T04:56:07.526Z,16.42
2019-03-27T05:01:32.528Z,14.28
2019-03-27T05:06:54.538Z,13.83
2019-03-27T05:12:16.566Z,14.40
2019-03-27T05:17:45.990Z,13.72
2019-03-27T05:23:02.550Z,13.72
2019-03-27T05:28:24.949Z,12.60
2019-03-27T05:33:46.937Z,13.15
2019-03-27T05:39:09.088Z,13.18
2019-03-27T05:44:31.366Z,17.85
2019-03-27T05:49:53.530Z,13.38
2019-03-27T05:55:16.745Z,14.28
2019-03-27T06:00:39.380Z,14.00
2019-03-27T06:06:01.624Z,12.13
2019-03-27T06:11:24.694Z,12.28
2019-03-27T06:16:47.536Z,11.60
2019-03-27T06:22:09.912Z,14.47
2019-03-27T06:27:32.651Z,11.85
2019-03-27T06:32:55.574Z,11.40
2019-03-27T06:38:19.008Z,9.73
2019-03-27T06:43:42.358Z,11.25
2019-03-27T06:49:06.329Z,10.82
2019-03-27T06:54:28.134Z,9.98
2019-03-27T06:59:50.433Z,11.18
2019-03-27T07:05:14.119Z,13.00
2019-03-27T07:10:36.421Z,10.18
2019-03-27T07:15:58.545Z,11.80
2019-03-27T07:21:20.914Z,11.50
2019-03-27T07:26:42.960Z,11.08
2019-03-27T07:32:04.892Z,10.72
2019-03-27T07:37:28.410Z,13.72
2019-03-27T07:42:50.853Z,15.38
2019-03-27T07:48:13.024Z,10.98
2019-03-27T07:53:35.860Z,11.35
2019-03-27T07:58:59.777Z,13.78
2019-03-27T08:04:21.684Z,10.18
2019-03-27T08:09:44.664Z,10.95
2019-03-27T08:15:09.615Z,10.32
2019-03-27T08:20:31.558Z,10.03
2019-03-27T08:25:53.600Z,10.30
2019-03-27T08:31:16.756Z,22.37
2019-03-27T08:36:38.809Z,10.10
2019-03-27T08:42:01.047Z,10.03
2019-03-27T08:47:23.504Z,9.78
2019-03-27T08:52:45.730Z,10.35
2019-03-27T08:58:07.453Z,10.13
2019-03-27T09:03:29.915Z,10.45
2019-03-27T09:08:52.100Z,11.08
2019-03-27T09:14:14.239Z,11.07
2019-03-27T09:19:36.546Z,10.70
2019-03-27T09:24:59.988Z,9.48
2019-03-27T09:30:22.601Z,9.88
2019-03-27T09:35:44.996Z,10.10
2019-03-27T09:41:07.692Z,10.18
2019-03-27T09:46:29.882Z,10.60
2019-03-27T09:51:52.102Z,9.85
2019-03-27T09:57:18.431Z,8.85
2019-03-27T10:02:40.618Z,9.35
2019-03-27T10:08:02.978Z,9.85
2019-03-27T10:13:25.963Z,9.63
2019-03-27T10:18:49.301Z,9.95
2019-03-27T10:24:12.116Z,9.90
2019-03-27T10:29:44.626Z,8.88
2019-03-27T10:35:07.794Z,9.23
2019-03-27T10:40:30.116Z,10.18
2019-03-27T10:45:51.973Z,9.70
2019-03-27T10:51:15.072Z,10.32
2019-03-27T10:56:38.445Z,10.23
2019-03-27T11:02:00.868Z,9.90
2019-03-27T11:07:23.859Z,9.83
2019-03-27T11:12:47.479Z,9.53
2019-03-27T11:18:12.217Z,8.33
2019-03-27T11:23:36.368Z,9.50
2019-03-27T11:28:59.292Z,8.60
2019-03-27T11:34:21.843Z,8.03
2019-03-27T11:39:43.990Z,10.40
2019-03-27T11:45:08.452Z,7.78
2019-03-27T11:50:43.791Z,7.42
2019-03-27T11:55:55.408Z,7.47
2019-03-27T12:01:18.091Z,7.97
2019-03-27T12:06:40.750Z,8.48
2019-03-27T12:12:03.719Z,16.05
2019-03-27T12:17:26.831Z,7.90
2019-03-27T12:22:57.718Z,8.60
2019-03-27T12:28:13.854Z,8.53
2019-03-27T12:33:36.744Z,8.30
2019-03-27T12:38:59.035Z,9.68
2019-03-27T12:44:21.258Z,8.30
2019-03-27T12:49:44.456Z,8.30
2019-03-27T12:55:07.495Z,7.62
2019-03-27T13:00:29.715Z,7.05
2019-03-27T13:05:56.712Z,6.33
2019-03-27T13:11:19.765Z,6.40
2019-03-27T13:16:43.570Z,7.20
2019-03-27T13:22:06.208Z,7.00
2019-03-27T13:27:30.444Z,7.95
2019-03-27T13:32:56.956Z,7.40
2019-03-27T13:38:01.589Z,8.30
2019-03-27T13:43:05.464Z,7.22
2019-03-27T13:48:28.275Z,8.20
2019-03-27T13:54:00.994Z,6.55
2019-03-27T13:59:23.785Z,7.92
2019-03-27T14:04:46.800Z,7.70
2019-03-27T14:10:09.375Z,7.15
2019-03-27T14:15:31.976Z,7.35
2019-03-27T14:20:55.109Z,6.62
2019-03-27T14:26:17.827Z,7.30
2019-03-27T14:31:42.182Z,7.17
2019-03-27T14:37:05.360Z,7.80
2019-03-27T14:42:29.908Z,8.00
2019-03-27T14:47:52.837Z,7.05
2019-03-27T14:53:14.760Z,8.73
2019-03-27T14:58:37.347Z,7.10
2019-03-27T15:04:02.334Z,7.80
2019-03-27T15:09:26.005Z,7.70
2019-03-27T15:14:48.951Z,7.25
2019-03-27T15:20:12.682Z,6.83
2019-03-27T15:25:35.059Z,10.05
2019-03-27T15:30:39.602Z,8.53
2019-03-27T15:35:44.728Z,7.67
2019-03-27T15:41:07.339Z,7.92
2019-03-27T15:46:11.027Z,7.40
2019-03-27T15:51:14.645Z,7.60
2019-03-27T15:56:18.091Z,7.10
2019-03-27T16:01:21.719Z,10.58
2019-03-27T16:13:23.485Z,9.18
2019-03-27T16:59:27.535Z,8.25
2019-03-27T17:04:49.952Z,8.23
2019-03-27T17:11:15.782Z,8.00
2019-03-27T17:16:43.725Z,5.37
2019-03-27T17:22:18.550Z,6.35
2019-03-27T17:27:29.720Z,5.80
2019-03-27T17:32:51.914Z,8.88
2019-03-27T17:38:19.685Z,10.03
2019-03-27T17:43:48.250Z,10.65
2019-03-27T17:49:10.501Z,13.95
2019-03-27T17:54:32.344Z,7.58
2019-03-27T18:00:22.154Z,6.60
2019-03-27T18:05:52.401Z,6.70
2019-03-27T18:11:18.673Z,6.17
2019-03-27T18:16:42.288Z,5.72
2019-03-27T18:22:31.609Z,6.45
2019-03-27T18:28:59.379Z,7.15
2019-03-27T18:41:27.044Z,5.62
2019-03-27T18:54:27.259Z,10.13
2019-03-27T19:00:22.996Z,16.82
2019-03-27T19:06:46.309Z,12.35
2019-03-27T19:12:37.535Z,15.72
2019-03-27T19:18:00.316Z,10.90
2019-03-27T23:03:30.251Z,12.80
2019-03-27T23:54:55.561Z,12.57
